Time;durP1;ratioP1;P1;durP2;ratioP2;P2;SDS_P1;SDS_P2;PMS_P1;PMS_P2;Temp;Humidity;BMP_temperature;BMP_pressure;BME280_temperature;BME280_humidity;BME280_pressure;Samples;Min_cycle;Max_cycle;Signal;HPM_P1;HPM_P2
2022/03/26 00:01:32;;;;;;;103.70;49.87;;;8.70;56.30;;;;;;5073860;28;20478;-74
2022/03/26 00:04:01;;;;;;;100.90;48.67;;;8.70;56.20;;;;;;5076201;28;20484;-74
2022/03/26 00:06:28;;;;;;;122.80;55.10;;;8.70;56.20;;;;;;5070143;28;20469;-72
2022/03/26 00:08:56;;;;;;;133.00;56.67;;;8.60;56.20;;;;;;5077590;28;21308;-72
2022/03/26 00:11:24;;;;;;;113.07;49.10;;;8.60;56.30;;;;;;5077679;28;20457;-73
2022/03/26 00:13:54;;;;;;;86.67;43.77;;;8.50;56.40;;;;;;5066012;28;20478;-74
2022/03/26 00:16:22;;;;;;;113.07;50.30;;;8.40;56.50;;;;;;5075603;28;21110;-74
2022/03/26 00:18:50;;;;;;;97.33;46.47;;;8.40;56.60;;;;;;5075613;28;20235;-73
2022/03/26 00:21:18;;;;;;;61.78;33.17;;;8.40;56.60;;;;;;5076709;28;20460;-74
2022/03/26 00:23:45;;;;;;;64.35;32.15;;;8.30;56.70;;;;;;5076315;28;20253;-74
2022/03/26 00:26:15;;;;;;;58.40;31.07;;;8.30;56.70;;;;;;5077049;28;20261;-74
2022/03/26 00:28:43;;;;;;;65.20;34.70;;;8.30;56.90;;;;;;5071988;28;21303;-74
2022/03/26 00:31:13;;;;;;;66.83;34.20;;;8.30;56.90;;;;;;5072926;28;20470;-73
2022/03/26 00:33:42;;;;;;;78.10;35.27;;;8.30;56.90;;;;;;5077142;28;20962;-74
2022/03/26 00:36:10;;;;;;;84.37;40.57;;;8.20;56.90;;;;;;5077779;28;21358;-75
2022/03/26 00:38:38;;;;;;;81.40;40.40;;;8.20;56.90;;;;;;5077094;28;20511;-73
2022/03/26 00:41:06;;;;;;;106.83;48.47;;;8.20;57.00;;;;;;5070766;28;20473;-73
2022/03/26 00:43:34;;;;;;;92.13;44.17;;;8.10;57.00;;;;;;5076676;28;21029;-73
2022/03/26 00:46:02;;;;;;;71.57;35.47;;;8.10;57.20;;;;;;5075868;28;20239;-73
2022/03/26 00:48:31;;;;;;;64.47;34.78;;;8.10;57.20;;;;;;5072015;28;20212;-73
2022/03/26 00:51:00;;;;;;;117.15;51.13;;;8.00;57.30;;;;;;5072646;28;20253;-73
2022/03/26 00:53:27;;;;;;;121.27;54.60;;;8.00;57.30;;;;;;5072830;28;20200;-73
2022/03/26 00:55:55;;;;;;;105.88;47.97;;;7.90;57.30;;;;;;5070251;28;20457;-73
2022/03/26 00:58:24;;;;;;;76.82;37.50;;;7.80;57.40;;;;;;5074554;28;20909;-73
2022/03/26 01:00:51;;;;;;;73.95;36.70;;;7.80;57.50;;;;;;5071645;28;20314;-72
2022/03/26 01:03:20;;;;;;;76.43;37.10;;;7.70;57.60;;;;;;5076698;28;20200;-74
2022/03/26 01:05:49;;;;;;;47.17;26.48;;;7.70;57.70;;;;;;5072876;28;20257;-73
2022/03/26 01:08:17;;;;;;;41.42;24.98;;;7.70;57.80;;;;;;5072412;28;20231;-75
2022/03/26 01:10:46;;;;;;;83.38;34.78;;;7.70;57.90;;;;;;5073103;28;20607;-73
2022/03/26 01:13:16;;;;;;;106.50;45.42;;;7.70;58.10;;;;;;5073193;28;20243;-73
2022/03/26 01:15:44;;;;;;;85.88;37.47;;;7.80;58.00;;;;;;5057081;28;20231;-73
2022/03/26 01:18:12;;;;;;;88.35;41.47;;;7.70;57.90;;;;;;5075724;28;20261;-73
2022/03/26 01:20:40;;;;;;;54.33;29.00;;;7.70;57.90;;;;;;5077602;28;20208;-72
2022/03/26 01:23:10;;;;;;;46.77;27.00;;;7.60;58.00;;;;;;5075702;28;20199;-75
2022/03/26 01:25:38;;;;;;;53.42;28.60;;;7.60;58.00;;;;;;5075297;28;20535;-74
2022/03/26 01:28:06;;;;;;;58.58;29.45;;;7.60;58.20;;;;;;5075298;28;20204;-74
2022/03/26 01:30:34;;;;;;;201.45;83.00;;;7.60;58.30;;;;;;5075019;28;20223;-73
2022/03/26 01:33:03;;;;;;;105.93;47.87;;;7.60;58.30;;;;;;5072705;28;20211;-73
2022/03/26 01:35:31;;;;;;;54.72;30.00;;;7.60;58.30;;;;;;5076531;28;20846;-73
2022/03/26 01:38:01;;;;;;;61.47;28.30;;;7.60;58.40;;;;;;5073527;28;20222;-73
2022/03/26 01:40:30;;;;;;;133.35;53.47;;;7.60;58.40;;;;;;5056038;28;20199;-73
2022/03/26 01:42:59;;;;;;;210.48;83.60;;;7.70;58.40;;;;;;5074079;28;20203;-73
2022/03/26 01:45:28;;;;;;;97.70;45.45;;;7.60;58.30;;;;;;5068995;28;20242;-74
2022/03/26 01:47:56;;;;;;;96.95;44.08;;;7.60;58.40;;;;;;5072495;28;20204;-74
2022/03/26 01:50:24;;;;;;;64.53;34.42;;;7.60;58.40;;;;;;5072683;28;20630;-73
2022/03/26 01:52:52;;;;;;;63.00;34.00;;;7.60;58.40;;;;;;5075752;28;20203;-73
2022/03/26 01:55:21;;;;;;;55.33;31.17;;;7.60;58.60;;;;;;5053090;28;20232;-73
2022/03/26 01:57:50;;;;;;;46.87;25.43;;;7.50;58.40;;;;;;5074668;28;20261;-74
2022/03/26 02:00:19;;;;;;;57.13;31.70;;;7.40;58.50;;;;;;5074537;28;20449;-74
2022/03/26 02:02:47;;;;;;;54.20;30.55;;;7.40;58.60;;;;;;5076967;28;20225;-72
2022/03/26 02:05:16;;;;;;;59.05;30.95;;;7.40;58.70;;;;;;5078339;28;20731;-72
2022/03/26 02:07:46;;;;;;;97.18;41.08;;;7.40;58.80;;;;;;5080684;28;20248;-74
2022/03/26 02:10:16;;;;;;;97.28;45.25;;;7.30;58.80;;;;;;5077356;28;20215;-73
2022/03/26 02:12:46;;;;;;;82.75;34.30;;;7.30;58.90;;;;;;5076825;28;20218;-74
2022/03/26 02:15:17;;;;;;;107.97;46.25;;;7.30;58.80;;;;;;5078464;28;20233;-74
2022/03/26 02:17:45;;;;;;;64.78;32.17;;;7.20;58.80;;;;;;5077741;28;20261;-73
2022/03/26 02:20:18;;;;;;;70.00;35.78;;;7.20;58.80;;;;;;5078577;28;20681;-73
2022/03/26 02:22:46;;;;;;;59.30;31.73;;;7.10;58.90;;;;;;5080554;28;20922;-73
2022/03/26 02:25:14;;;;;;;45.47;24.67;;;7.00;59.10;;;;;;5078237;28;20294;-73
2022/03/26 02:27:42;;;;;;;48.00;27.58;;;7.00;59.10;;;;;;5078557;28;20677;-74
2022/03/26 02:30:11;;;;;;;123.57;53.65;;;7.00;59.30;;;;;;5078853;28;20216;-73
2022/03/26 02:32:39;;;;;;;69.85;36.45;;;7.00;59.20;;;;;;5074078;28;20203;-73
2022/03/26 02:35:08;;;;;;;65.80;33.20;;;7.00;59.30;;;;;;5076342;28;20249;-73
2022/03/26 02:37:37;;;;;;;65.95;31.75;;;7.00;59.30;;;;;;5079560;28;20211;-73
2022/03/26 02:40:08;;;;;;;54.17;27.85;;;6.90;59.20;;;;;;5078795;28;20257;-73
2022/03/26 02:42:36;;;;;;;56.00;27.23;;;6.90;59.40;;;;;;5077731;28;20592;-73
2022/03/26 02:45:05;;;;;;;136.30;55.72;;;6.80;59.50;;;;;;5079914;28;20465;-73
2022/03/26 02:47:33;;;;;;;96.78;45.03;;;6.80;59.40;;;;;;5086305;28;20216;-73
2022/03/26 02:50:01;;;;;;;119.72;51.85;;;6.80;59.40;;;;;;5083624;28;20223;-74
2022/03/26 02:52:29;;;;;;;89.70;37.80;;;6.70;59.40;;;;;;5082847;28;20222;-74
2022/03/26 02:54:58;;;;;;;59.40;31.60;;;6.70;59.50;;;;;;5084227;28;20256;-74
2022/03/26 02:57:27;;;;;;;75.15;34.78;;;6.60;59.50;;;;;;5084586;28;20204;-74
2022/03/26 02:59:55;;;;;;;52.63;27.17;;;6.60;59.60;;;;;;5076733;28;20210;-73
2022/03/26 03:02:23;;;;;;;41.90;22.95;;;6.50;59.70;;;;;;5076474;28;20234;-74
2022/03/26 03:04:51;;;;;;;58.83;28.55;;;6.50;59.80;;;;;;5078354;28;20231;-74
2022/03/26 03:07:20;;;;;;;57.60;29.73;;;6.50;59.90;;;;;;5079073;28;20691;-74
2022/03/26 03:09:48;;;;;;;48.08;25.88;;;6.50;59.90;;;;;;5076745;28;20216;-74
2022/03/26 03:12:17;;;;;;;56.88;24.95;;;6.40;59.90;;;;;;5077226;28;20208;-72
2022/03/26 03:14:46;;;;;;;41.13;25.60;;;6.40;60.10;;;;;;5075544;28;20635;-73
2022/03/26 03:17:13;;;;;;;46.17;23.17;;;6.50;60.20;;;;;;5075348;28;20231;-72
2022/03/26 03:19:41;;;;;;;48.45;26.50;;;6.50;60.20;;;;;;5052485;28;20204;-72
2022/03/26 03:22:10;;;;;;;135.52;52.58;;;6.50;60.30;;;;;;5075564;28;20196;-73
2022/03/26 03:24:38;;;;;;;65.63;32.17;;;6.50;60.30;;;;;;5077308;28;20238;-72
2022/03/26 03:27:06;;;;;;;58.72;31.20;;;6.50;60.30;;;;;;5076356;28;20235;-73
2022/03/26 03:29:36;;;;;;;68.57;34.10;;;6.60;60.50;;;;;;5076026;28;20285;-72
2022/03/26 03:32:04;;;;;;;89.50;39.75;;;6.60;60.50;;;;;;5076422;28;20238;-72
2022/03/26 03:34:33;;;;;;;77.10;36.97;;;6.70;60.30;;;;;;5059227;28;20235;-74
2022/03/26 03:37:01;;;;;;;64.07;32.30;;;6.60;60.20;;;;;;5076650;28;20645;-72
2022/03/26 03:39:29;;;;;;;88.40;37.83;;;6.60;60.20;;;;;;5074042;28;20204;-72
2022/03/26 03:41:57;;;;;;;83.78;36.97;;;6.60;60.20;;;;;;5074418;28;20264;-72
2022/03/26 03:44:25;;;;;;;67.63;31.70;;;6.50;60.20;;;;;;5078059;28;20260;-74
2022/03/26 03:46:54;;;;;;;48.20;25.27;;;6.40;60.10;;;;;;5065161;28;20223;-74
2022/03/26 03:49:22;;;;;;;44.83;22.88;;;6.40;60.10;;;;;;5077159;28;20199;-73
2022/03/26 03:51:50;;;;;;;43.40;22.92;;;6.30;60.30;;;;;;5077131;28;20696;-74
2022/03/26 03:54:18;;;;;;;40.38;22.42;;;6.30;60.40;;;;;;5076165;28;20301;-74
2022/03/26 03:56:46;;;;;;;45.65;22.92;;;6.30;60.50;;;;;;5075300;28;20200;-72
2022/03/26 03:59:14;;;;;;;147.98;49.03;;;6.30;60.60;;;;;;5075390;28;20204;-72
2022/03/26 04:01:42;;;;;;;109.95;42.80;;;6.20;60.60;;;;;;5076695;28;20227;-74
2022/03/26 04:04:12;;;;;;;70.05;31.58;;;6.20;60.60;;;;;;5075709;28;20285;-74
2022/03/26 04:06:40;;;;;;;57.33;26.27;;;6.20;60.50;;;;;;5077575;28;20211;-74
2022/03/26 04:09:08;;;;;;;49.38;24.85;;;6.10;60.60;;;;;;5077831;28;20214;-74
2022/03/26 04:11:36;;;;;;;80.47;40.53;;;6.10;60.60;;;;;;5074169;28;20223;-74
2022/03/26 04:14:05;;;;;;;119.35;47.63;;;6.00;60.80;;;;;;5061835;28;20231;-74
2022/03/26 04:16:33;;;;;;;74.63;33.95;;;6.00;60.80;;;;;;5073912;28;20281;-73
2022/03/26 04:19:01;;;;;;;48.90;24.38;;;6.00;60.80;;;;;;5077655;28;20199;-74
2022/03/26 04:21:30;;;;;;;43.15;24.77;;;5.90;60.70;;;;;;5058727;28;20192;-72
2022/03/26 04:23:58;;;;;;;44.63;24.45;;;5.90;60.80;;;;;;5069335;28;20285;-74
2022/03/26 04:26:26;;;;;;;48.13;24.83;;;5.80;60.90;;;;;;5073558;28;20203;-74
2022/03/26 04:28:54;;;;;;;50.97;28.20;;;5.80;61.10;;;;;;5075389;28;20312;-74
2022/03/26 04:31:22;;;;;;;49.20;27.55;;;5.80;61.10;;;;;;5076675;28;20228;-74
2022/03/26 04:33:50;;;;;;;46.50;26.30;;;5.80;61.10;;;;;;5079761;28;20234;-75
2022/03/26 04:36:18;;;;;;;50.10;25.63;;;5.70;61.10;;;;;;5077299;28;20203;-74
2022/03/26 04:38:48;;;;;;;54.92;27.55;;;5.70;61.10;;;;;;5077036;28;20616;-74
2022/03/26 04:41:17;;;;;;;61.75;31.35;;;5.60;61.20;;;;;;5071470;28;20257;-74
2022/03/26 04:43:45;;;;;;;55.83;27.35;;;5.60;61.30;;;;;;5075372;28;20220;-74
2022/03/26 04:46:13;;;;;;;53.92;29.10;;;5.60;61.40;;;;;;5076472;28;20231;-74
2022/03/26 04:48:41;;;;;;;55.75;27.60;;;5.60;61.50;;;;;;5082252;28;20260;-74
2022/03/26 04:51:09;;;;;;;59.80;29.75;;;5.50;61.40;;;;;;5060509;28;20269;-73
2022/03/26 04:53:37;;;;;;;53.60;27.30;;;5.50;61.40;;;;;;5076255;28;20216;-73
2022/03/26 04:56:08;;;;;;;49.53;28.85;;;5.50;61.50;;;;;;5077119;28;20199;-74
2022/03/26 04:58:36;;;;;;;42.63;23.00;;;5.40;61.60;;;;;;5077177;28;20249;-73
2022/03/26 05:01:04;;;;;;;44.13;22.90;;;5.40;61.60;;;;;;5075090;28;20289;-73
2022/03/26 05:03:32;;;;;;;46.58;24.50;;;5.30;61.70;;;;;;5076660;28;20250;-72
2022/03/26 05:06:00;;;;;;;39.70;22.20;;;5.30;61.80;;;;;;5076717;28;20212;-73
2022/03/26 05:08:28;;;;;;;42.45;23.02;;;5.40;62.00;;;;;;5075585;28;20211;-73
2022/03/26 05:10:56;;;;;;;44.92;22.52;;;5.40;62.10;;;;;;5076250;28;20215;-74
2022/03/26 05:13:27;;;;;;;45.65;24.00;;;5.40;62.10;;;;;;5074065;28;20217;-74
2022/03/26 05:15:55;;;;;;;38.92;21.65;;;5.50;62.10;;;;;;5075367;28;20238;-73
2022/03/26 05:18:26;;;;;;;41.40;21.85;;;5.50;62.20;;;;;;5074916;28;20748;-73
2022/03/26 05:20:55;;;;;;;40.53;21.73;;;5.50;62.20;;;;;;5076948;28;20187;-73
2022/03/26 05:23:25;;;;;;;44.72;22.27;;;5.50;62.10;;;;;;5073913;28;20627;-73
2022/03/26 05:25:53;;;;;;;38.38;20.73;;;5.50;62.10;;;;;;5073899;28;20235;-73
2022/03/26 05:28:21;;;;;;;45.58;22.90;;;5.50;62.10;;;;;;5078849;28;20533;-73
2022/03/26 05:30:51;;;;;;;48.05;23.80;;;5.50;62.20;;;;;;5060275;28;20244;-74
2022/03/26 05:33:19;;;;;;;46.72;23.42;;;5.50;62.30;;;;;;5076628;28;20786;-74
2022/03/26 05:35:47;;;;;;;41.17;21.63;;;5.50;62.20;;;;;;5077992;28;20222;-74
2022/03/26 05:38:16;;;;;;;41.28;21.50;;;5.50;62.10;;;;;;5078423;28;20203;-74
2022/03/26 05:40:43;;;;;;;40.42;22.02;;;5.50;62.20;;;;;;5076935;28;20235;-73
2022/03/26 05:43:11;;;;;;;40.10;21.05;;;5.50;62.20;;;;;;5081301;28;20204;-74
2022/03/26 05:45:39;;;;;;;40.47;21.70;;;5.40;62.20;;;;;;5079510;28;20243;-74
2022/03/26 05:48:09;;;;;;;54.70;24.70;;;5.30;62.10;;;;;;5081747;28;20614;-74
2022/03/26 05:50:37;;;;;;;51.13;23.88;;;5.30;62.40;;;;;;5082503;28;20203;-73
2022/03/26 05:53:05;;;;;;;46.30;24.55;;;5.30;62.60;;;;;;5078127;28;20253;-73
2022/03/26 05:55:34;;;;;;;49.10;26.58;;;5.40;62.70;;;;;;5054486;28;20278;-73
2022/03/26 05:58:03;;;;;;;43.88;24.95;;;5.40;62.80;;;;;;5075188;28;20203;-74
2022/03/26 06:00:31;;;;;;;45.08;24.67;;;5.50;62.70;;;;;;5076890;28;20280;-74
2022/03/26 06:02:59;;;;;;;41.08;23.65;;;5.50;62.70;;;;;;5075877;28;20281;-74
2022/03/26 06:05:29;;;;;;;46.10;23.45;;;5.50;62.70;;;;;;5073820;28;20227;-73
2022/03/26 06:07:57;;;;;;;48.25;26.73;;;5.50;62.80;;;;;;5076542;28;20632;-73
2022/03/26 06:10:26;;;;;;;54.53;29.65;;;5.60;62.90;;;;;;5074777;28;20545;-74
2022/03/26 06:12:54;;;;;;;46.85;27.20;;;5.70;63.00;;;;;;5072130;28;20215;-73
2022/03/26 06:15:23;;;;;;;42.05;26.33;;;5.80;63.00;;;;;;5073746;28;20223;-73
2022/03/26 06:18:10;;;;;;;49.58;27.35;;;5.80;62.90;;;;;;5073695;28;20252;-73
2022/03/26 06:20:42;;;;;;;43.58;25.80;;;5.80;62.90;;;;;;5070960;28;20882;-73
2022/03/26 06:23:10;;;;;;;157.55;68.65;;;5.80;62.90;;;;;;5073687;28;20201;-74
2022/03/26 06:25:38;;;;;;;111.72;54.88;;;5.90;62.90;;;;;;5075211;28;20227;-73
2022/03/26 06:28:06;;;;;;;88.50;48.60;;;5.90;63.10;;;;;;5074759;28;20253;-73
2022/03/26 06:30:34;;;;;;;55.67;29.65;;;5.90;63.10;;;;;;5071513;28;20242;-73
2022/03/26 06:33:02;;;;;;;51.75;26.48;;;5.90;63.00;;;;;;5054096;28;20224;-73
2022/03/26 06:35:30;;;;;;;59.70;29.52;;;5.90;63.20;;;;;;5077843;28;20243;-74
2022/03/26 06:37:59;;;;;;;86.47;38.05;;;5.90;63.30;;;;;;5074034;28;20204;-73
2022/03/26 06:40:28;;;;;;;101.88;44.33;;;5.90;63.50;;;;;;5053955;28;20257;-73
2022/03/26 06:42:55;;;;;;;91.40;44.28;;;6.00;63.70;;;;;;5072442;28;20270;-74
2022/03/26 06:45:24;;;;;;;94.57;47.47;;;6.20;63.90;;;;;;5070200;28;20220;-72
2022/03/26 06:47:52;;;;;;;75.03;38.92;;;6.30;63.80;;;;;;5072210;28;20206;-74
2022/03/26 06:50:20;;;;;;;65.22;34.55;;;6.40;63.90;;;;;;5077997;28;20916;-74
2022/03/26 06:52:48;;;;;;;58.72;33.92;;;6.50;63.90;;;;;;5079649;28;20236;-74
2022/03/26 06:55:18;;;;;;;46.90;26.65;;;6.60;64.00;;;;;;5070260;28;20873;-74
2022/03/26 06:57:46;;;;;;;43.72;26.88;;;6.60;63.90;;;;;;5077328;28;20207;-73
2022/03/26 07:00:15;;;;;;;44.28;26.50;;;6.70;63.90;;;;;;5078317;28;20195;-74
2022/03/26 07:02:43;;;;;;;50.80;27.80;;;6.80;64.00;;;;;;5066888;28;20304;-73
2022/03/26 07:05:12;;;;;;;45.27;27.60;;;6.80;64.20;;;;;;5080448;28;20711;-72
2022/03/26 07:07:40;;;;;;;56.97;29.52;;;7.00;64.30;;;;;;5077702;28;20470;-73
2022/03/26 07:10:09;;;;;;;49.03;27.15;;;7.10;64.30;;;;;;5078474;28;20252;-72
2022/03/26 07:12:39;;;;;;;50.08;26.55;;;7.20;64.30;;;;;;5080055;28;20628;-72
2022/03/26 07:15:08;;;;;;;44.80;25.80;;;7.30;64.20;;;;;;5077967;28;20234;-73
2022/03/26 07:17:39;;;;;;;49.40;27.35;;;7.40;64.30;;;;;;5079586;28;20200;-75
2022/03/26 07:20:09;;;;;;;47.50;27.13;;;7.50;64.30;;;;;;5078866;28;20691;-73
2022/03/26 07:22:37;;;;;;;46.80;25.20;;;7.60;64.40;;;;;;5079743;28;20196;-72
2022/03/26 07:25:06;;;;;;;43.55;25.88;;;7.70;64.50;;;;;;5079339;28;20231;-73
2022/03/26 07:27:35;;;;;;;40.73;24.40;;;7.70;64.60;;;;;;5078395;28;20204;-74
2022/03/26 07:30:06;;;;;;;48.88;25.15;;;7.80;64.70;;;;;;5076674;28;20874;-74
2022/03/26 07:32:34;;;;;;;46.60;24.47;;;7.90;64.70;;;;;;5078655;28;20223;-73
2022/03/26 07:35:02;;;;;;;43.80;23.90;;;8.00;64.80;;;;;;5076860;28;20539;-74
2022/03/26 07:37:30;;;;;;;40.93;23.03;;;8.10;64.80;;;;;;5077426;28;20450;-74
2022/03/26 07:39:58;;;;;;;41.27;22.90;;;8.20;64.70;;;;;;5077678;28;20465;-73
2022/03/26 07:42:26;;;;;;;44.00;25.13;;;8.30;64.70;;;;;;5076204;28;20482;-74
2022/03/26 07:44:54;;;;;;;47.17;23.43;;;8.30;64.70;;;;;;5057826;28;20901;-74
2022/03/26 07:47:24;;;;;;;42.83;23.97;;;8.40;64.70;;;;;;5073478;28;20493;-73
2022/03/26 07:49:52;;;;;;;40.10;22.80;;;8.50;64.70;;;;;;5074485;28;20980;-73
2022/03/26 07:52:20;;;;;;;40.20;23.70;;;8.60;64.70;;;;;;5078037;28;20522;-73
2022/03/26 07:54:48;;;;;;;39.63;22.80;;;8.60;64.70;;;;;;5075627;28;20955;-73
2022/03/26 07:57:16;;;;;;;42.97;23.30;;;8.70;64.70;;;;;;5077611;28;20966;-73
2022/03/26 07:59:44;;;;;;;49.73;24.67;;;8.80;64.70;;;;;;5072978;28;20570;-73
2022/03/26 08:02:11;;;;;;;43.57;24.27;;;8.90;64.70;;;;;;5074572;28;20532;-74
2022/03/26 08:04:41;;;;;;;40.70;21.50;;;9.00;64.70;;;;;;5075313;28;21608;-73
2022/03/26 08:07:09;;;;;;;48.67;23.83;;;9.10;64.70;;;;;;5073954;28;20457;-74
2022/03/26 08:09:37;;;;;;;46.77;22.97;;;9.20;64.70;;;;;;5074441;28;20453;-73
2022/03/26 08:12:06;;;;;;;46.63;24.70;;;9.30;64.60;;;;;;5075326;28;20469;-73
2022/03/26 08:14:34;;;;;;;47.53;23.83;;;9.40;64.60;;;;;;5075553;28;20476;-73
2022/03/26 08:17:03;;;;;;;48.00;23.27;;;9.50;64.60;;;;;;5072305;28;20568;-74
2022/03/26 08:19:34;;;;;;;39.23;23.83;;;9.60;64.50;;;;;;5072331;28;20461;-74
2022/03/26 08:22:04;;;;;;;45.43;24.13;;;9.60;64.40;;;;;;5074792;28;20465;-74
2022/03/26 08:24:33;;;;;;;47.93;23.93;;;9.70;64.30;;;;;;5079041;28;20488;-74
2022/03/26 08:27:00;;;;;;;47.73;24.20;;;9.80;64.30;;;;;;5077823;28;20466;-73
2022/03/26 08:29:28;;;;;;;42.73;24.60;;;9.90;64.30;;;;;;5081913;28;20469;-73
2022/03/26 08:31:56;;;;;;;42.30;25.00;;;10.00;64.30;;;;;;5070356;28;20466;-72
2022/03/26 08:34:24;;;;;;;41.50;23.80;;;10.10;64.30;;;;;;5083959;28;20584;-73
2022/03/26 08:36:52;;;;;;;41.83;22.77;;;10.20;64.30;;;;;;5086423;28;20500;-72
2022/03/26 08:39:22;;;;;;;46.40;24.97;;;10.30;64.10;;;;;;5083546;28;20450;-72
2022/03/26 08:41:49;;;;;;;44.90;24.70;;;10.40;64.00;;;;;;5079718;28;20517;-72
2022/03/26 08:44:17;;;;;;;49.93;24.43;;;10.50;63.90;;;;;;5062271;28;20458;-74
2022/03/26 08:46:45;;;;;;;48.27;25.60;;;10.60;63.90;;;;;;5074734;28;20477;-72
2022/03/26 08:49:14;;;;;;;45.63;24.40;;;10.70;63.70;;;;;;5079041;28;20465;-74
2022/03/26 08:51:42;;;;;;;51.13;27.00;;;10.80;63.70;;;;;;5077558;28;20457;-74
2022/03/26 08:54:10;;;;;;;48.73;25.07;;;10.90;63.60;;;;;;5074637;28;21251;-74
2022/03/26 08:56:39;;;;;;;46.47;24.83;;;11.00;63.50;;;;;;5072142;28;20461;-73
2022/03/26 08:59:07;;;;;;;50.20;26.33;;;11.10;63.30;;;;;;5073026;28;20469;-73
2022/03/26 09:01:35;;;;;;;48.97;26.63;;;11.30;63.20;;;;;;5075075;28;20492;-72
2022/03/26 09:04:04;;;;;;;42.43;24.77;;;11.40;63.00;;;;;;5074352;28;20557;-75
2022/03/26 09:06:32;;;;;;;48.53;25.40;;;11.50;63.00;;;;;;5072562;28;20682;-72
2022/03/26 09:09:02;;;;;;;48.00;26.37;;;11.60;62.80;;;;;;5074161;28;20453;-72
2022/03/26 09:11:30;;;;;;;42.73;24.30;;;11.70;62.00;;;;;;5075730;28;20457;-74
2022/03/26 09:14:00;;;;;;;52.10;26.30;;;11.80;62.40;;;;;;5074353;28;20531;-73
2022/03/26 09:16:30;;;;;;;54.93;24.97;;;11.90;62.10;;;;;;5073525;28;20454;-75
2022/03/26 09:18:58;;;;;;;43.93;25.30;;;12.00;61.90;;;;;;5077519;28;20481;-75
2022/03/26 09:21:26;;;;;;;53.93;26.40;;;12.10;61.50;;;;;;5077734;28;20996;-75
2022/03/26 09:23:54;;;;;;;43.40;27.03;;;12.20;61.50;;;;;;5074949;28;20482;-74
2022/03/26 09:26:22;;;;;;;44.20;26.10;;;12.20;60.70;;;;;;5075422;28;20504;-72
2022/03/26 09:28:50;;;;;;;55.03;27.83;;;12.30;61.30;;;;;;5076729;28;21132;-75
2022/03/26 09:31:19;;;;;;;43.47;24.90;;;12.40;61.10;;;;;;5056025;28;20484;-75
2022/03/26 09:33:48;;;;;;;47.77;26.70;;;12.50;60.90;;;;;;5078231;28;20485;-75
2022/03/26 09:36:16;;;;;;;45.63;25.30;;;12.60;60.70;;;;;;5072374;28;21005;-75
2022/03/26 09:38:44;;;;;;;52.03;27.43;;;12.60;60.50;;;;;;5073248;28;20461;-74
2022/03/26 09:41:13;;;;;;;42.00;25.87;;;12.70;60.50;;;;;;5073399;28;20491;-74
2022/03/26 09:43:41;;;;;;;46.27;25.27;;;12.70;60.30;;;;;;5073913;28;20451;-74
2022/03/26 09:46:09;;;;;;;50.70;26.40;;;12.80;60.10;;;;;;5072380;28;21046;-75
2022/03/26 09:48:39;;;;;;;48.10;26.43;;;12.90;59.50;;;;;;5074567;28;20457;-74
2022/03/26 09:51:08;;;;;;;50.67;29.00;;;13.00;59.50;;;;;;5075289;28;20969;-74
2022/03/26 09:53:36;;;;;;;47.47;25.20;;;13.10;58.90;;;;;;5071740;28;20749;-74
2022/03/26 09:56:05;;;;;;;48.47;26.40;;;13.20;58.40;;;;;;5070517;28;20458;-74
2022/03/26 09:58:33;;;;;;;45.90;25.00;;;13.20;58.40;;;;;;5074852;28;20943;-74
2022/03/26 10:01:01;;;;;;;47.00;26.67;;;13.20;57.50;;;;;;5073650;28;21029;-75
2022/03/26 10:03:29;;;;;;;48.10;25.83;;;13.30;57.50;;;;;;5071297;28;20462;-72
2022/03/26 10:06:04;;;;;;;45.80;27.03;;;13.40;57.00;;;;;;5071281;28;20490;-75
2022/03/26 10:08:35;;;;;;;44.57;25.87;;;13.50;57.20;;;;;;5071222;28;20831;-74
2022/03/26 10:11:04;;;;;;;41.67;24.50;;;13.50;57.10;;;;;;5053517;28;20456;-74
2022/03/26 10:13:37;;;;;;;43.60;26.00;;;13.60;56.90;;;;;;5076058;28;20480;-74
2022/03/26 10:16:07;;;;;;;42.63;24.10;;;13.60;56.50;;;;;;5070295;28;20482;-73
2022/03/26 10:18:37;;;;;;;50.03;24.20;;;13.60;56.40;;;;;;5075403;28;20928;-72
2022/03/26 10:21:08;;;;;;;53.47;26.60;;;13.60;56.30;;;;;;5072637;28;20884;-73
2022/03/26 10:23:36;;;;;;;48.43;25.10;;;13.60;56.30;;;;;;5075958;28;20465;-73
2022/03/26 10:26:10;;;;;;;42.63;24.70;;;13.70;56.10;;;;;;5076671;28;20831;-73
2022/03/26 10:28:40;;;;;;;38.20;22.60;;;13.70;56.00;;;;;;5077621;28;20457;-73
2022/03/26 10:34:04;;;;;;;45.77;25.13;;;13.80;55.80;;;;;;5079085;28;20489;-72
2022/03/26 10:36:35;;;;;;;46.00;24.67;;;13.80;55.60;;;;;;5079045;28;20963;-72
2022/03/26 10:39:04;;;;;;;44.60;25.83;;;13.90;55.60;;;;;;5078368;28;20454;-71
2022/03/26 10:41:34;;;;;;;44.60;25.23;;;13.90;55.50;;;;;;5079615;28;20460;-72
2022/03/26 10:44:08;;;;;;;38.87;22.37;;;14.00;55.50;;;;;;5077807;28;20845;-72
2022/03/26 10:46:44;;;;;;;40.70;20.33;;;14.00;55.30;;;;;;5065150;28;20479;-72
2022/03/26 10:49:14;;;;;;;30.13;16.70;;;14.10;54.70;;;;;;5076451;28;20464;-72
2022/03/26 10:51:45;;;;;;;34.43;19.10;;;14.10;54.50;;;;;;5078669;28;20448;-71
2022/03/26 10:54:13;;;;;;;34.90;17.67;;;14.10;54.20;;;;;;5080399;28;20493;-72
2022/03/26 10:56:41;;;;;;;29.87;16.97;;;14.20;53.90;;;;;;5078818;28;21274;-72
2022/03/26 10:59:14;;;;;;;26.53;13.77;;;14.20;53.70;;;;;;5078968;28;20489;-72
2022/03/26 11:01:42;;;;;;;28.67;14.57;;;14.30;53.70;;;;;;5069407;28;20468;-72
2022/03/26 11:04:10;;;;;;;27.80;15.17;;;14.40;53.30;;;;;;5082224;28;20967;-73
2022/03/26 11:06:40;;;;;;;27.30;15.47;;;14.50;53.10;;;;;;5086838;28;20484;-73
2022/03/26 11:09:12;;;;;;;28.00;15.03;;;14.50;53.00;;;;;;5080770;28;20515;-73
2022/03/26 11:11:40;;;;;;;30.80;15.47;;;14.60;53.20;;;;;;5084208;28;20461;-74
2022/03/26 11:14:14;;;;;;;35.93;18.23;;;14.70;52.30;;;;;;5076882;28;20497;-74
2022/03/26 11:17:03;;;;;;;34.43;16.63;;;14.80;52.60;;;;;;5079824;28;20461;-74
2022/03/26 11:19:43;;;;;;;33.17;15.87;;;14.80;51.90;;;;;;5083134;28;20528;-75
2022/03/26 11:22:30;;;;;;;27.70;15.27;;;14.80;52.20;;;;;;5078468;28;20477;-74
2022/03/26 11:25:49;;;;;;;29.90;13.83;;;14.90;52.30;;;;;;5077155;28;20560;-74
2022/03/26 11:28:42;;;;;;;26.87;11.70;;;14.90;52.00;;;;;;5055537;28;20498;-74
2022/03/26 11:31:16;;;;;;;30.80;15.17;;;15.00;51.30;;;;;;5079574;28;20737;-74
2022/03/26 11:33:48;;;;;;;22.50;12.67;;;15.00;51.60;;;;;;5080093;28;20446;-73
2022/03/26 11:36:19;;;;;;;24.47;12.33;;;15.10;50.80;;;;;;5078540;28;20453;-74
2022/03/26 11:38:55;;;;;;;34.93;15.27;;;15.10;50.80;;;;;;5064383;28;20520;-74
2022/03/26 11:41:33;;;;;;;31.10;13.90;;;15.20;51.00;;;;;;5078462;28;21037;-73
2022/03/26 11:44:03;;;;;;;37.73;14.47;;;15.20;50.60;;;;;;5081250;28;20573;-74
2022/03/26 11:52:29;;;;;;;39.90;15.03;;;15.40;51.00;;;;;;5063540;28;20514;-73
2022/03/26 11:55:02;;;;;;;26.60;12.53;;;15.40;51.00;;;;;;5074993;28;20490;-74
2022/03/26 11:57:37;;;;;;;28.03;12.33;;;15.40;50.60;;;;;;5078195;28;20461;-72
2022/03/26 12:00:18;;;;;;;24.70;13.20;;;15.40;50.70;;;;;;5080499;28;20471;-74
2022/03/26 12:02:49;;;;;;;28.07;13.70;;;15.40;50.40;;;;;;5078766;28;20506;-73
2022/03/26 12:08:17;;;;;;;29.07;13.47;;;15.50;50.80;;;;;;5077061;28;20537;-73
2022/03/26 12:10:46;;;;;;;25.80;13.20;;;15.50;50.60;;;;;;5076914;28;20526;-73
2022/03/26 12:13:22;;;;;;;28.87;13.70;;;15.60;50.70;;;;;;5079629;28;20510;-74
2022/03/26 12:15:59;;;;;;;31.73;13.37;;;15.60;50.60;;;;;;5074974;28;20473;-72
2022/03/26 12:18:36;;;;;;;25.80;13.50;;;15.60;50.60;;;;;;5074223;28;20508;-74
2022/03/26 12:21:22;;;;;;;35.70;16.10;;;15.60;50.30;;;;;;5075321;28;20814;-74
2022/03/26 12:23:52;;;;;;;33.10;13.50;;;15.60;50.40;;;;;;5074875;28;20458;-75
2022/03/26 12:26:22;;;;;;;27.80;13.80;;;15.70;50.50;;;;;;5076638;28;21128;-73
2022/03/26 12:28:52;;;;;;;23.70;12.67;;;15.70;50.50;;;;;;5077771;28;20449;-74
2022/03/26 12:31:19;;;;;;;31.50;14.77;;;15.70;50.50;;;;;;5077852;28;20482;-75
2022/03/26 12:33:52;;;;;;;38.13;13.43;;;15.80;50.60;;;;;;5074517;28;20465;-75
2022/03/26 12:36:21;;;;;;;24.50;12.90;;;15.80;50.40;;;;;;5078200;28;20526;-74
2022/03/26 12:38:51;;;;;;;33.43;13.17;;;15.90;50.20;;;;;;5077721;28;20469;-74
2022/03/26 12:41:19;;;;;;;27.27;13.30;;;15.90;50.20;;;;;;5078182;28;20453;-73
2022/03/26 12:43:55;;;;;;;27.53;13.40;;;15.90;49.90;;;;;;5073100;28;20534;-73
2022/03/26 12:46:30;;;;;;;28.40;13.17;;;16.00;50.00;;;;;;5071513;28;20572;-74
2022/03/26 12:48:58;;;;;;;23.53;12.30;;;16.00;49.90;;;;;;5076340;28;20527;-74
2022/03/26 12:51:28;;;;;;;25.97;11.90;;;15.90;49.90;;;;;;5071454;28;20469;-74
2022/03/26 12:53:59;;;;;;;28.67;12.47;;;15.90;49.90;;;;;;5073717;28;20462;-74
2022/03/26 12:56:27;;;;;;;31.23;12.43;;;15.90;50.10;;;;;;5071674;28;20474;-73